Time;durP1;ratioP1;P1;durP2;ratioP2;P2;SDS_P1;SDS_P2;PMS_P1;PMS_P2;Temp;Humidity;BMP_temperature;BMP_pressure;BME280_temperature;BME280_humidity;BME280_pressure;Samples;Min_cycle;Max_cycle;Signal;HPM_P1;HPM_P2
2023/06/19 00:00:41;;;;;;;19.25;6.42;;;;;;;20.02;49.55;99846.53;1735023;82;21782;-80
2023/06/19 00:03:47;;;;;;;9.15;6.35;;;;;;;19.97;49.79;99845.60;1734928;82;21217;-82
2023/06/19 00:06:54;;;;;;;10.70;5.80;;;;;;;20.02;49.70;99845.14;1734073;82;21308;-79
2023/06/19 00:10:00;;;;;;;10.82;6.80;;;;;;;19.77;50.32;99840.52;1735249;82;21209;-79
2023/06/19 00:13:14;;;;;;;9.03;6.15;;;;;;;19.84;50.44;99841.19;1877957;76;22215;-82
2023/06/19 00:16:20;;;;;;;9.80;5.58;;;;;;;19.72;50.55;99845.97;1781394;80;21680;-83
2023/06/19 00:19:25;;;;;;;12.68;6.05;;;;;;;19.55;50.92;99848.63;1782352;80;21276;-82
2023/06/19 00:22:32;;;;;;;10.80;6.08;;;;;;;19.61;50.87;99845.73;1748841;82;21299;-79
2023/06/19 00:25:37;;;;;;;9.05;5.95;;;;;;;19.67;50.78;99848.09;1749563;82;21931;-81
2023/06/19 00:28:45;;;;;;;9.38;5.97;;;;;;;19.84;50.47;99841.19;1748260;82;21279;-80
2023/06/19 00:31:53;;;;;;;10.67;5.77;;;;;;;19.68;50.74;99834.52;1748780;82;21362;-83
2023/06/19 00:35:01;;;;;;;9.03;5.67;;;;;;;19.59;50.91;99840.96;1749702;82;21299;-82
2023/06/19 00:38:07;;;;;;;8.23;5.40;;;;;;;19.70;51.02;99838.42;1749912;82;21279;-82
2023/06/19 00:41:12;;;;;;;9.88;5.55;;;;;;;19.57;51.15;99840.38;1749205;82;21692;-82
2023/06/19 00:44:11;;;;;;;11.75;5.60;;;;;;;19.57;51.32;99840.38;1749841;82;21272;-80
2023/06/19 00:47:08;;;;;;;12.58;5.87;;;;;;;19.68;51.23;99839.22;1749799;82;21350;-82
2023/06/19 00:50:14;;;;;;;10.98;5.20;;;;;;;19.63;51.16;99839.96;1749912;82;21307;-82
2023/06/19 00:53:19;;;;;;;10.65;5.80;;;;;;;19.99;50.54;99840.08;1749825;82;21328;-80
2023/06/19 00:56:24;;;;;;;6.75;4.55;;;;;;;19.80;50.80;99840.00;1749901;82;21307;-80
2023/06/19 00:59:30;;;;;;;9.40;5.10;;;;;;;19.78;50.72;99842.19;1749828;82;21312;-81
2023/06/19 01:02:35;;;;;;;10.32;5.17;;;;;;;19.70;50.78;99841.19;1749840;82;21280;-80
2023/06/19 01:05:42;;;;;;;9.48;5.20;;;;;;;19.71;50.96;99844.26;1749520;82;21319;-82
2023/06/19 01:08:54;;;;;;;14.53;5.15;;;;;;;19.77;50.70;99837.73;1749830;82;21287;-80
2023/06/19 01:12:04;;;;;;;10.93;5.67;;;;;;;19.70;51.01;99843.97;1749024;82;21321;-81
2023/06/19 01:15:12;;;;;;;9.53;5.28;;;;;;;19.65;51.09;99840.55;1743597;82;21810;-82
2023/06/19 01:18:16;;;;;;;9.00;4.90;;;;;;;19.68;51.14;99842.00;1743593;82;21281;-80
2023/06/19 01:21:25;;;;;;;12.15;5.20;;;;;;;19.64;51.25;99843.87;1721284;82;21924;-82
2023/06/19 01:24:31;;;;;;;8.80;4.40;;;;;;;19.69;51.29;99840.35;1743019;82;21301;-80
2023/06/19 01:27:36;;;;;;;12.05;4.47;;;;;;;19.68;51.25;99845.61;1742666;82;21317;-81
2023/06/19 01:30:41;;;;;;;8.13;4.83;;;;;;;19.63;51.27;99842.73;1742501;82;21340;-81
2023/06/19 01:33:48;;;;;;;8.25;4.45;;;;;;;19.69;51.32;99836.19;1741730;82;21321;-81
2023/06/19 01:36:57;;;;;;;8.78;4.60;;;;;;;19.68;51.33;99840.06;1741547;82;21375;-82
2023/06/19 01:40:04;;;;;;;16.17;4.40;;;;;;;19.91;50.65;99842.73;1742988;82;21291;-82
2023/06/19 01:43:10;;;;;;;7.72;4.65;;;;;;;19.98;50.59;99846.73;1742429;82;21312;-80
2023/06/19 01:46:15;;;;;;;7.53;4.08;;;;;;;19.95;50.78;99840.31;1742978;82;21300;-82
2023/06/19 01:49:20;;;;;;;9.50;4.37;;;;;;;19.93;50.84;99848.03;1719309;82;21922;-80
2023/06/19 01:52:27;;;;;;;16.70;4.30;;;;;;;19.89;50.96;99848.22;1741513;82;21909;-82
2023/06/19 01:55:33;;;;;;;7.47;4.85;;;;;;;19.94;50.99;99843.31;1741303;82;21904;-80
2023/06/19 01:58:38;;;;;;;9.88;4.65;;;;;;;20.09;50.75;99852.78;1742196;82;21312;-82
2023/06/19 02:01:45;;;;;;;7.08;4.22;;;;;;;20.16;50.58;99856.23;1741467;82;21324;-81
2023/06/19 02:04:54;;;;;;;10.80;4.72;;;;;;;20.02;51.00;99857.63;1742818;82;21837;-82
2023/06/19 02:08:00;;;;;;;8.38;4.50;;;;;;;20.12;50.98;99844.48;1743340;82;21199;-82
2023/06/19 02:11:06;;;;;;;17.02;5.03;;;;;;;20.31;50.57;99840.37;1742929;82;21317;-80
2023/06/19 02:14:12;;;;;;;8.58;4.40;;;;;;;20.60;49.73;99845.88;1740363;82;21305;-82
2023/06/19 02:17:19;;;;;;;7.47;4.12;;;;;;;20.88;49.00;99849.09;1741562;82;21313;-82
2023/06/19 02:20:27;;;;;;;7.03;3.92;;;;;;;21.01;48.45;99843.18;1742583;82;21806;-80
2023/06/19 02:23:33;;;;;;;9.98;3.80;;;;;;;21.07;48.43;99850.48;1742538;82;21305;-81
2023/06/19 02:26:39;;;;;;;8.68;4.15;;;;;;;21.39;47.89;99851.23;1741982;82;21340;-82
2023/06/19 02:29:44;;;;;;;9.38;4.17;;;;;;;21.59;47.45;99856.20;1743056;82;21324;-83
2023/06/19 02:32:50;;;;;;;7.97;3.98;;;;;;;21.91;46.54;99857.69;1742980;82;21281;-81
2023/06/19 02:35:58;;;;;;;9.53;4.40;;;;;;;21.87;45.89;99856.53;1742379;82;21313;-81
2023/06/19 02:39:04;;;;;;;7.70;3.60;;;;;;;22.24;45.29;99855.83;1742946;82;21340;-83
2023/06/19 02:42:10;;;;;;;10.08;3.85;;;;;;;22.03;45.32;99848.64;1741570;82;21846;-81
2023/06/19 02:45:16;;;;;;;11.70;4.55;;;;;;;22.45;44.34;99855.77;1742618;82;21298;-81
2023/06/19 02:48:23;;;;;;;12.15;3.50;;;;;;;22.86;43.80;99848.25;1741528;82;21289;-82
2023/06/19 02:51:29;;;;;;;9.38;3.80;;;;;;;23.12;43.27;99852.92;1742006;82;21380;-80
2023/06/19 02:54:36;;;;;;;12.40;4.20;;;;;;;23.33;43.00;99848.28;1742096;82;21348;-82
2023/06/19 02:57:42;;;;;;;12.50;3.67;;;;;;;23.52;43.00;99852.83;1742853;82;21293;-80
2023/06/19 03:00:47;;;;;;;9.40;4.17;;;;;;;23.81;42.60;99844.89;1742533;82;21774;-82
2023/06/19 03:03:54;;;;;;;12.35;3.95;;;;;;;23.90;42.51;99850.23;1741578;82;21202;-80
2023/06/19 03:07:02;;;;;;;9.58;3.83;;;;;;;24.04;42.22;99849.67;1741702;82;21305;-82
2023/06/19 03:10:11;;;;;;;10.75;3.22;;;;;;;24.09;42.30;99849.15;1742937;82;21858;-83
2023/06/19 03:13:16;;;;;;;11.12;3.67;;;;;;;24.44;41.87;99850.33;1742953;82;21850;-80
2023/06/19 03:16:22;;;;;;;8.43;3.35;;;;;;;24.65;41.39;99843.59;1710328;84;21327;-82
2023/06/19 03:19:28;;;;;;;8.20;3.47;;;;;;;23.53;43.41;99844.77;1714298;83;21288;-80
2023/06/19 03:22:36;;;;;;;14.05;3.85;;;;;;;23.57;43.94;99846.42;1709428;84;21328;-79
2023/06/19 03:25:42;;;;;;;11.90;3.80;;;;;;;23.71;43.47;99849.02;1713171;83;21940;-81
2023/06/19 03:28:48;;;;;;;7.62;3.62;;;;;;;23.76;42.89;99840.69;1714208;83;21880;-80
2023/06/19 03:31:57;;;;;;;9.15;3.30;;;;;;;23.61;43.06;99847.56;1712975;83;21311;-80
2023/06/19 03:34:58;;;;;;;9.10;3.95;;;;;;;23.71;43.25;99847.63;1708821;84;22187;-81
2023/06/19 03:37:52;;;;;;;9.50;3.47;;;;;;;23.49;43.72;99849.20;1714458;83;21311;-80
2023/06/19 03:40:57;;;;;;;8.05;3.60;;;;;;;23.54;43.20;99853.41;1713865;83;21736;-79
2023/06/19 03:44:04;;;;;;;9.03;3.60;;;;;;;23.70;43.28;99852.94;1709470;84;21291;-82
2023/06/19 03:47:10;;;;;;;16.10;3.75;;;;;;;24.16;42.96;99851.66;1713204;83;21864;-80
2023/06/19 03:50:16;;;;;;;12.30;2.98;;;;;;;24.39;42.43;99859.55;1740609;82;21322;-80
2023/06/19 03:53:23;;;;;;;8.63;3.50;;;;;;;24.53;41.92;99852.84;1740600;82;21296;-82
2023/06/19 03:56:29;;;;;;;10.03;3.58;;;;;;;24.61;41.44;99851.45;1739461;82;21320;-80
2023/06/19 03:59:35;;;;;;;9.85;3.42;;;;;;;24.52;41.73;99848.94;1739195;82;21296;-81
2023/06/19 04:02:42;;;;;;;5.83;3.05;;;;;;;24.52;41.38;99859.56;1739162;82;21287;-81
2023/06/19 04:05:48;;;;;;;5.20;2.98;;;;;;;24.51;41.69;99861.22;1739580;82;21318;-82
2023/06/19 04:08:53;;;;;;;6.70;3.75;;;;;;;24.50;41.83;99856.19;1740624;82;21275;-80
2023/06/19 04:12:01;;;;;;;13.00;3.37;;;;;;;24.23;42.17;99859.23;1711780;82;21303;-82
2023/06/19 04:15:07;;;;;;;9.13;3.50;;;;;;;23.94;42.82;99856.08;1740765;81;21876;-80
2023/06/19 04:18:13;;;;;;;6.75;2.65;;;;;;;23.79;42.91;99868.61;1709673;84;21259;-81
2023/06/19 04:21:22;;;;;;;9.98;3.05;;;;;;;23.48;43.56;99874.05;1740772;82;21274;-81
2023/06/19 04:24:29;;;;;;;8.63;3.50;;;;;;;23.40;43.82;99867.02;1711312;84;21314;-82
2023/06/19 04:27:35;;;;;;;12.10;3.42;;;;;;;23.36;44.64;99870.07;1714336;83;21814;-81
2023/06/19 04:30:41;;;;;;;7.72;2.90;;;;;;;23.45;44.93;99871.23;1742468;81;21259;-81
2023/06/19 04:33:46;;;;;;;6.30;3.40;;;;;;;23.37;44.91;99873.70;1714379;83;21754;-81
2023/06/19 04:36:52;;;;;;;13.05;3.37;;;;;;;23.45;44.93;99872.63;1741575;81;21339;-82
2023/06/19 04:39:58;;;;;;;8.05;3.27;;;;;;;23.52;44.51;99877.11;1709452;83;21294;-82
2023/06/19 04:42:57;;;;;;;10.60;3.72;;;;;;;23.68;44.48;99885.89;1714511;83;21759;-81
2023/06/19 04:46:03;;;;;;;6.00;3.25;;;;;;;23.94;44.00;99897.41;1742661;81;21275;-81
2023/06/19 04:49:09;;;;;;;9.20;2.92;;;;;;;24.13;44.12;99885.73;1714391;83;21710;-81
2023/06/19 04:52:15;;;;;;;11.40;3.70;;;;;;;24.17;43.60;99891.89;1741493;82;21892;-82
2023/06/19 04:55:21;;;;;;;8.33;2.95;;;;;;;24.38;42.78;99894.77;1714206;83;21312;-82
2023/06/19 04:58:28;;;;;;;9.53;3.12;;;;;;;24.62;43.54;99895.90;1742954;82;21859;-80
2023/06/19 05:01:34;;;;;;;9.48;3.05;;;;;;;24.67;43.15;99893.67;1714260;83;21327;-82
2023/06/19 05:04:42;;;;;;;9.78;3.25;;;;;;;24.72;42.31;99905.69;1742911;82;21291;-80
2023/06/19 05:07:47;;;;;;;7.45;3.05;;;;;;;24.74;42.50;99900.64;1708275;84;21282;-80
2023/06/19 05:10:54;;;;;;;6.53;2.85;;;;;;;24.76;42.83;99908.77;1714057;83;21372;-82
2023/06/19 05:14:00;;;;;;;7.85;3.50;;;;;;;24.79;43.18;99904.55;1742968;82;21260;-83
2023/06/19 05:17:06;;;;;;;13.18;3.40;;;;;;;24.83;43.17;99902.87;1724313;82;21335;-81
2023/06/19 05:20:13;;;;;;;4.33;2.40;;;;;;;24.97;43.33;99903.98;1803495;79;21335;-80
2023/06/19 05:23:19;;;;;;;10.05;2.70;;;;;;;25.11;42.63;99907.08;1803496;79;21253;-81
2023/06/19 05:26:26;;;;;;;6.53;2.65;;;;;;;25.09;42.71;99913.53;1802301;79;21346;-80
2023/06/19 05:29:31;;;;;;;5.72;3.05;;;;;;;24.97;42.63;99923.58;1803562;79;21808;-82
2023/06/19 05:32:38;;;;;;;12.47;3.12;;;;;;;24.95;43.03;99916.03;1802390;79;21331;-81
2023/06/19 05:35:51;;;;;;;8.65;3.15;;;;;;;24.89;43.36;99911.54;1803091;79;21304;-81
2023/06/19 05:38:52;;;;;;;11.25;2.80;;;;;;;24.97;43.88;99916.02;1803642;79;21312;-82
2023/06/19 05:41:59;;;;;;;20.77;3.47;;;;;;;25.02;43.44;99924.13;1802394;79;21300;-80
2023/06/19 05:45:05;;;;;;;7.12;3.17;;;;;;;25.21;43.19;99928.05;1789547;79;21247;-82
2023/06/19 05:48:11;;;;;;;10.65;3.00;;;;;;;25.31;42.68;99922.99;1777619;81;21300;-80
2023/06/19 05:51:17;;;;;;;6.70;2.77;;;;;;;25.46;42.42;99925.78;1776836;81;21303;-81
2023/06/19 05:54:23;;;;;;;12.93;3.15;;;;;;;25.51;41.92;99925.77;1777622;80;21280;-80
2023/06/19 05:57:30;;;;;;;16.75;2.85;;;;;;;25.56;42.14;99918.75;1776163;81;21887;-81
2023/06/19 06:00:36;;;;;;;11.20;2.87;;;;;;;25.83;42.23;99931.02;1772127;79;21346;-82
2023/06/19 06:03:36;;;;;;;12.40;3.12;;;;;;;25.66;41.95;99923.47;1771939;81;21275;-80
2023/06/19 06:06:28;;;;;;;7.78;2.80;;;;;;;25.73;42.42;99919.79;1771030;81;21310;-82
2023/06/19 06:09:15;;;;;;;9.78;2.95;;;;;;;25.85;41.44;99914.73;1772079;81;21287;-80
2023/06/19 06:12:15;;;;;;;9.53;2.83;;;;;;;25.89;41.90;99908.84;1772061;81;21292;-82
2023/06/19 06:15:21;;;;;;;5.97;2.67;;;;;;;26.09;41.29;99913.50;1772009;81;21859;-80
2023/06/19 06:18:28;;;;;;;8.98;2.90;;;;;;;26.24;40.33;99914.80;1775212;80;21819;-82
2023/06/19 06:21:34;;;;;;;7.92;3.08;;;;;;;26.29;39.41;99911.13;1778861;80;21301;-80
2023/06/19 06:24:39;;;;;;;9.90;2.30;;;;;;;26.34;40.05;99904.66;1778946;80;21275;-80
2023/06/19 06:27:45;;;;;;;8.30;3.08;;;;;;;26.46;40.17;99909.38;1779387;80;21140;-82
2023/06/19 06:30:55;;;;;;;8.13;3.00;;;;;;;26.61;39.72;99914.87;1778712;79;21180;-80
2023/06/19 06:34:01;;;;;;;8.48;2.50;;;;;;;26.70;40.40;99917.89;1780126;80;21292;-80
2023/06/19 06:37:07;;;;;;;8.05;2.95;;;;;;;27.03;39.33;99917.61;1778676;80;21291;-81
2023/06/19 06:40:14;;;;;;;11.55;2.77;;;;;;;26.95;39.41;99916.26;1780152;80;21268;-81
2023/06/19 06:43:21;;;;;;;8.75;2.92;;;;;;;27.01;38.52;99927.73;1780375;80;21275;-81
2023/06/19 06:46:28;;;;;;;8.80;2.47;;;;;;;27.15;38.55;99927.92;1782514;79;21326;-82
2023/06/19 06:49:33;;;;;;;7.22;2.60;;;;;;;27.11;37.14;99918.98;1780015;80;21275;-82
2023/06/19 06:52:41;;;;;;;7.72;2.62;;;;;;;27.20;38.69;99914.41;1779953;80;21319;-80
2023/06/19 06:55:47;;;;;;;11.35;3.02;;;;;;;27.21;37.95;99925.89;1779801;80;21872;-80
2023/06/19 06:58:53;;;;;;;13.40;3.45;;;;;;;27.28;38.48;99914.30;1778884;79;21334;-82
2023/06/19 07:02:00;;;;;;;7.03;2.25;;;;;;;27.57;38.38;99918.47;1778916;79;21335;-80
2023/06/19 07:05:06;;;;;;;7.37;3.10;;;;;;;27.64;38.00;99904.34;1780152;80;21276;-81
2023/06/19 07:08:11;;;;;;;12.95;2.62;;;;;;;27.49;38.25;99908.75;1779549;80;21276;-82
2023/06/19 07:11:17;;;;;;;5.62;2.65;;;;;;;27.54;38.52;99905.88;1779442;80;21769;-81
2023/06/19 07:14:23;;;;;;;5.70;2.40;;;;;;;27.60;38.00;99913.10;1780083;79;21302;-82
2023/06/19 07:17:27;;;;;;;6.72;2.45;;;;;;;27.62;37.35;99905.23;1780250;79;21846;-81
2023/06/19 07:20:33;;;;;;;7.40;2.60;;;;;;;27.47;36.36;99903.41;1784640;80;21311;-80
2023/06/19 07:23:39;;;;;;;12.58;2.83;;;;;;;27.46;37.54;99900.91;1785604;80;21661;-80
2023/06/19 07:26:44;;;;;;;12.98;2.52;;;;;;;27.75;36.73;99901.70;1784578;80;21876;-82
2023/06/19 07:29:51;;;;;;;14.03;2.72;;;;;;;27.91;37.28;99898.14;1784894;80;21204;-82
2023/06/19 07:32:58;;;;;;;5.58;2.25;;;;;;;28.11;36.43;99912.48;1783944;80;21318;-81
2023/06/19 07:36:04;;;;;;;8.73;2.42;;;;;;;28.15;35.08;99902.88;1785019;80;21311;-81
2023/06/19 07:39:10;;;;;;;6.35;2.47;;;;;;;28.12;34.27;99910.51;1784453;80;21335;-80
2023/06/19 07:42:17;;;;;;;4.97;1.95;;;;;;;28.12;34.11;99915.55;1785605;80;21749;-81
2023/06/19 07:45:23;;;;;;;9.55;2.33;;;;;;;28.07;35.12;99910.58;1785214;79;21319;-80
2023/06/19 07:48:29;;;;;;;7.17;2.00;;;;;;;27.91;34.79;99911.37;1784878;80;21377;-82
2023/06/19 07:51:35;;;;;;;8.93;1.87;;;;;;;28.16;33.01;99905.38;1783450;80;21306;-81
2023/06/19 07:54:55;;;;;;;8.10;2.20;;;;;;;28.11;31.83;99915.30;1785585;80;21302;-81
2023/06/19 07:58:01;;;;;;;10.00;2.15;;;;;;;28.17;31.68;99909.03;1785474;80;21326;-79
2023/06/19 08:01:06;;;;;;;7.50;1.90;;;;;;;28.20;32.21;99917.70;1814741;79;21868;-81
2023/06/19 08:04:13;;;;;;;5.10;2.42;;;;;;;28.12;32.34;99914.72;1816607;79;21322;-80
2023/06/19 08:07:19;;;;;;;9.15;2.17;;;;;;;28.18;32.56;99906.48;1817473;79;21295;-81
2023/06/19 08:10:38;;;;;;;7.30;2.77;;;;;;;28.33;31.78;99904.88;1817303;79;21302;-82
2023/06/19 08:13:43;;;;;;;10.03;2.08;;;;;;;28.44;31.97;99904.17;1817797;79;21318;-82
2023/06/19 08:16:49;;;;;;;19.25;3.45;;;;;;;27.30;34.06;99900.83;1815819;79;21864;-81
2023/06/19 08:19:54;;;;;;;8.38;2.60;;;;;;;27.47;33.55;99903.98;1812615;79;21331;-81
2023/06/19 08:23:00;;;;;;;9.78;2.85;;;;;;;27.62;32.66;99903.83;1811398;79;21592;-80
2023/06/19 08:26:07;;;;;;;6.00;2.52;;;;;;;27.31;33.42;99901.92;1811250;79;21307;-80
2023/06/19 08:29:13;;;;;;;6.85;2.70;;;;;;;27.67;34.09;99893.93;1806494;79;21275;-81
2023/06/19 08:32:18;;;;;;;7.42;2.90;;;;;;;27.78;33.26;99909.28;1780166;80;21820;-81
2023/06/19 08:35:23;;;;;;;13.25;2.25;;;;;;;27.93;33.47;99904.86;1779958;80;21288;-80
2023/06/19 08:38:28;;;;;;;10.18;2.33;;;;;;;27.68;33.15;99904.02;1780272;80;21276;-81
2023/06/19 08:41:34;;;;;;;17.52;2.67;;;;;;;27.53;33.66;99902.81;1779913;80;21321;-81
2023/06/19 08:44:40;;;;;;;12.50;2.87;;;;;;;27.58;33.36;99906.95;1779933;79;21947;-81
2023/06/19 08:47:45;;;;;;;8.50;2.60;;;;;;;27.67;33.23;99904.33;1780102;80;21264;-82
2023/06/19 08:50:53;;;;;;;11.05;3.67;;;;;;;27.77;33.42;99908.45;1779491;80;21856;-80
2023/06/19 08:54:06;;;;;;;11.45;3.02;;;;;;;27.99;32.31;99912.08;1764766;80;21295;-81
2023/06/19 08:57:13;;;;;;;7.70;2.87;;;;;;;28.01;32.19;99909.81;1778504;80;21208;-80
2023/06/19 09:00:22;;;;;;;7.60;2.72;;;;;;;28.10;32.46;99908.58;1778995;80;21291;-81
2023/06/19 09:03:31;;;;;;;6.17;2.35;;;;;;;28.26;31.21;99912.27;1757672;80;21272;-80
2023/06/19 09:06:38;;;;;;;7.12;2.83;;;;;;;28.37;31.45;99920.58;1778786;79;21231;-79
2023/06/19 09:09:43;;;;;;;9.75;2.72;;;;;;;28.42;31.25;99918.55;1779643;80;21291;-82
2023/06/19 09:13:04;;;;;;;8.40;2.25;;;;;;;28.06;32.35;99920.99;1780317;80;21635;-79
2023/06/19 09:16:15;;;;;;;7.92;2.40;;;;;;;27.25;33.10;99913.78;1780439;80;21300;-82
2023/06/19 09:19:22;;;;;;;9.25;2.42;;;;;;;27.45;32.90;99904.29;1780226;80;21819;-81
2023/06/19 09:22:29;;;;;;;4.33;2.42;;;;;;;27.84;33.04;99910.88;1721458;82;21286;-81
2023/06/19 09:25:28;;;;;;;10.90;2.90;;;;;;;28.21;32.00;99913.74;1739973;82;21295;-82
2023/06/19 09:28:31;;;;;;;7.72;2.42;;;;;;;28.25;32.25;99909.77;1722582;83;21263;-80
2023/06/19 09:31:42;;;;;;;13.50;2.50;;;;;;;27.83;31.57;99906.41;1745836;82;21291;-82
2023/06/19 09:34:41;;;;;;;5.92;2.15;;;;;;;28.23;31.49;99910.62;1745562;82;21292;-82
2023/06/19 09:37:47;;;;;;;6.10;2.50;;;;;;;28.27;31.16;99894.24;1745640;82;21746;-81
2023/06/19 09:40:55;;;;;;;4.33;2.35;;;;;;;28.18;31.74;99906.48;1722239;83;21350;-80
2023/06/19 09:44:00;;;;;;;4.33;2.37;;;;;;;28.19;31.97;99895.52;1745480;82;21296;-80
2023/06/19 09:46:53;;;;;;;5.70;2.60;;;;;;;27.85;31.58;99899.33;1745745;82;21302;-81
2023/06/19 09:50:03;;;;;;;4.13;1.90;;;;;;;27.94;32.01;99884.05;1745936;82;21822;-80
2023/06/19 09:53:10;;;;;;;6.37;1.70;;;;;;;28.14;32.33;99892.21;1732018;83;21273;-82
2023/06/19 09:56:15;;;;;;;11.95;2.65;;;;;;;28.30;32.82;99889.17;1726905;83;21331;-80
2023/06/19 09:59:22;;;;;;;7.00;2.30;;;;;;;28.42;31.57;99890.96;1727609;83;21332;-83
2023/06/19 10:02:28;;;;;;;4.58;2.17;;;;;;;28.47;31.48;99891.74;1727821;83;21279;-82
2023/06/19 10:05:40;;;;;;;9.23;3.05;;;;;;;28.51;31.45;99888.59;1727233;82;21859;-81
2023/06/19 10:08:50;;;;;;;6.12;2.47;;;;;;;28.68;31.45;99893.64;1727367;83;21329;-81
2023/06/19 10:11:58;;;;;;;11.30;2.92;;;;;;;28.84;30.80;99876.49;1726408;83;21946;-82
2023/06/19 10:15:05;;;;;;;7.28;2.80;;;;;;;28.45;30.99;99891.20;1727326;83;21312;-81
2023/06/19 10:18:11;;;;;;;4.78;2.65;;;;;;;28.15;31.71;99885.44;1727690;83;21280;-82
2023/06/19 10:21:27;;;;;;;7.72;2.60;;;;;;;28.36;31.09;99886.56;1727520;83;21301;-83
2023/06/19 10:24:33;;;;;;;3.85;2.62;;;;;;;28.35;30.66;99891.94;1760591;81;21319;-82
2023/06/19 10:27:44;;;;;;;6.83;2.60;;;;;;;28.39;30.65;99891.59;1752545;81;21288;-81
2023/06/19 10:30:55;;;;;;;9.48;3.47;;;;;;;28.34;31.01;99875.63;1723718;82;21876;-83
2023/06/19 10:34:01;;;;;;;8.00;2.77;;;;;;;28.52;30.41;99871.14;1774106;81;21840;-81
2023/06/19 10:37:08;;;;;;;4.22;2.80;;;;;;;28.22;31.19;99877.45;1773462;81;21829;-83
2023/06/19 10:40:15;;;;;;;8.15;3.02;;;;;;;28.33;31.85;99868.31;1741825;82;21852;-83
2023/06/19 10:43:31;;;;;;;9.98;3.45;;;;;;;27.93;31.53;99876.19;1741749;82;21295;-81
2023/06/19 10:46:42;;;;;;;14.03;3.90;;;;;;;28.28;31.33;99869.80;1744279;82;21326;-81
2023/06/19 10:49:47;;;;;;;6.42;2.67;;;;;;;28.24;31.48;99866.75;1764904;81;21825;-83
2023/06/19 10:52:54;;;;;;;4.53;2.77;;;;;;;28.15;32.06;99864.93;1706253;83;21355;-79
2023/06/19 10:56:04;;;;;;;6.17;2.50;;;;;;;28.27;31.24;99859.09;1734583;82;21157;-80
2023/06/19 10:59:14;;;;;;;7.40;3.55;;;;;;;28.32;31.00;99863.80;1730456;82;21276;-78
2023/06/19 11:02:20;;;;;;;9.93;2.85;;;;;;;28.32;30.00;99854.53;1735678;81;21861;-79
2023/06/19 11:05:28;;;;;;;8.35;3.40;;;;;;;28.37;31.00;99853.94;1737680;81;21303;-80
2023/06/19 11:08:27;;;;;;;5.53;2.90;;;;;;;28.36;30.66;99858.44;1742620;81;21271;-81
2023/06/19 11:11:27;;;;;;;8.78;3.12;;;;;;;28.47;30.63;99850.95;1735355;81;21275;-80
2023/06/19 11:14:39;;;;;;;7.30;3.17;;;;;;;28.64;30.53;99856.00;1734768;81;21848;-81
2023/06/19 11:17:44;;;;;;;5.92;3.02;;;;;;;28.51;31.13;99847.80;1736004;81;21280;-80
2023/06/19 11:20:59;;;;;;;5.40;2.80;;;;;;;28.63;31.07;99850.13;1739024;81;21291;-81
2023/06/19 11:24:06;;;;;;;5.22;2.95;;;;;;;28.76;30.35;99852.15;1731759;81;21292;-83
2023/06/19 11:27:16;;;;;;;10.50;3.05;;;;;;;28.91;29.80;99853.85;1728966;82;21299;-80
2023/06/19 11:30:21;;;;;;;8.65;2.90;;;;;;;28.82;30.14;99859.09;1705818;82;21559;-81
2023/06/19 11:33:29;;;;;;;6.70;3.10;;;;;;;28.77;29.95;99860.84;1730660;82;21280;-80
2023/06/19 11:36:36;;;;;;;7.30;3.22;;;;;;;28.80;30.21;99848.73;1701916;82;21255;-82
2023/06/19 11:39:41;;;;;;;4.08;2.70;;;;;;;28.82;29.79;99854.30;1729692;82;21264;-82
2023/06/19 11:43:00;;;;;;;8.18;2.80;;;;;;;28.40;30.15;99853.31;1725485;82;21311;-81
2023/06/19 11:46:15;;;;;;;4.87;3.02;;;;;;;28.47;30.98;99847.31;1729182;82;21268;-82
2023/06/19 11:49:24;;;;;;;11.10;3.20;;;;;;;28.63;31.44;99849.29;1729348;82;21279;-83
2023/06/19 11:52:30;;;;;;;4.25;3.02;;;;;;;28.68;30.74;99846.38;1730035;82;21300;-81
2023/06/19 11:55:36;;;;;;;10.88;3.17;;;;;;;28.63;30.70;99859.97;1746166;82;21879;-81
2023/06/19 11:58:44;;;;;;;6.00;3.30;;;;;;;28.64;30.33;99841.10;1746438;82;21288;-83
2023/06/19 12:01:50;;;;;;;7.53;3.40;;;;;;;28.57;31.18;99833.65;1746516;82;21295;-82
2023/06/19 12:04:57;;;;;;;5.28;3.20;;;;;;;28.63;30.09;99832.41;1746189;82;21872;-82
2023/06/19 12:08:04;;;;;;;12.78;3.67;;;;;;;28.59;30.63;99842.60;1745715;82;21331;-83
2023/06/19 12:11:10;;;;;;;5.60;3.10;;;;;;;28.58;30.97;99838.95;1722995;82;21327;-83
2023/06/19 12:14:16;;;;;;;10.45;3.70;;;;;;;28.52;31.28;99830.34;1745867;82;21351;-82
2023/06/19 12:17:21;;;;;;;10.03;3.62;;;;;;;28.62;31.33;99826.52;1747132;82;21323;-81
2023/06/19 12:20:28;;;;;;;12.13;3.47;;;;;;;28.69;30.41;99830.59;1749286;82;21320;-82
2023/06/19 12:23:33;;;;;;;8.53;3.67;;;;;;;28.63;31.10;99827.61;1748332;82;21927;-82
2023/06/19 12:26:41;;;;;;;5.10;3.10;;;;;;;28.59;31.34;99827.96;1749566;82;21212;-82
2023/06/19 12:29:46;;;;;;;5.50;3.15;;;;;;;28.65;30.56;99830.94;1749533;82;21308;-81
2023/06/19 12:32:51;;;;;;;4.92;3.22;;;;;;;28.55;30.30;99822.68;1747717;82;21284;-82
2023/06/19 12:35:57;;;;;;;8.65;3.37;;;;;;;28.53;30.58;99831.44;1744975;82;21323;-82
2023/06/19 12:39:12;;;;;;;6.85;2.95;;;;;;;28.42;30.23;99817.30;1745582;82;21331;-80
2023/06/19 12:42:12;;;;;;;4.55;3.05;;;;;;;28.46;31.10;99818.90;1744923;82;21303;-82
2023/06/19 12:45:18;;;;;;;10.38;3.37;;;;;;;28.61;31.54;99828.50;1745007;82;21318;-82
2023/06/19 12:48:23;;;;;;;7.05;3.52;;;;;;;28.60;31.29;99818.95;1746359;82;21277;-82
2023/06/19 12:51:30;;;;;;;6.30;3.85;;;;;;;28.76;31.48;99816.14;1745496;82;21358;-82
2023/06/19 12:54:37;;;;;;;10.13;3.60;;;;;;;28.83;30.46;99804.47;1745549;82;21935;-80
2023/06/19 12:57:44;;;;;;;5.90;3.55;;;;;;;28.90;30.57;99812.78;1746390;82;21830;-82
2023/06/19 13:00:51;;;;;;;6.58;3.30;;;;;;;28.92;30.16;99804.02;1745912;82;21327;-80
2023/06/19 13:03:58;;;;;;;5.78;3.40;;;;;;;28.96;31.12;99806.51;1717990;82;21379;-82
2023/06/19 13:07:03;;;;;;;7.83;3.62;;;;;;;29.02;31.17;99807.49;1715534;83;21327;-82
2023/06/19 13:13:24;;;;;;;7.17;3.72;;;;;;;29.03;30.32;99806.95;1744910;82;21287;-80
2023/06/19 13:16:30;;;;;;;6.62;3.80;;;;;;;28.96;29.92;99808.75;1745453;82;21382;-82
2023/06/19 13:19:38;;;;;;;13.00;4.55;;;;;;;28.88;30.09;99810.00;1716627;83;21315;-81
2023/06/19 13:22:45;;;;;;;7.05;3.27;;;;;;;28.73;29.92;99797.88;1715228;83;21323;-82
2023/06/19 13:25:51;;;;;;;8.33;3.25;;;;;;;28.71;30.86;99806.39;1707549;83;21307;-82
2023/06/19 13:28:58;;;;;;;8.68;4.05;;;;;;;28.79;31.07;99800.02;1693500;85;21312;-81
2023/06/19 13:32:04;;;;;;;5.87;3.62;;;;;;;28.75;30.72;99795.61;1692278;83;21370;-80
2023/06/19 13:35:10;;;;;;;9.23;3.60;;;;;;;28.75;30.62;99789.98;1693565;85;21382;-83
2023/06/19 13:38:16;;;;;;;5.35;3.58;;;;;;;28.72;30.60;99786.95;1693503;85;21327;-80
2023/06/19 13:41:23;;;;;;;10.25;4.00;;;;;;;28.67;30.93;99787.04;1692877;85;21366;-82
2023/06/19 13:44:28;;;;;;;10.15;3.70;;;;;;;28.64;31.38;99777.23;1692547;85;21366;-82
2023/06/19 13:47:34;;;;;;;12.95;4.35;;;;;;;28.63;30.60;99773.33;1693475;83;21295;-81
2023/06/19 13:50:40;;;;;;;6.58;3.50;;;;;;;28.61;30.97;99773.64;1693171;85;21347;-81
2023/06/19 13:53:46;;;;;;;9.90;4.15;;;;;;;28.61;30.28;99775.05;1693131;85;21302;-81
2023/06/19 13:56:52;;;;;;;9.90;3.60;;;;;;;28.52;30.68;99774.09;1692405;85;21360;-83
2023/06/19 13:59:58;;;;;;;6.50;4.08;;;;;;;28.52;30.78;99769.88;1693170;85;21291;-84
2023/06/19 14:03:06;;;;;;;6.90;3.92;;;;;;;28.53;31.27;99775.75;1722273;83;21288;-83
2023/06/19 14:06:14;;;;;;;7.70;4.15;;;;;;;28.44;30.51;99769.16;1725664;83;21335;-83
2023/06/19 14:09:23;;;;;;;9.35;3.80;;;;;;;28.38;30.63;99777.44;1710816;84;21347;-82
2023/06/19 14:12:22;;;;;;;6.60;3.90;;;;;;;28.38;30.73;99762.80;1719579;83;21228;-83
2023/06/19 14:15:29;;;;;;;7.00;3.50;;;;;;;28.31;31.22;99766.53;1713318;83;21884;-83
2023/06/19 14:18:37;;;;;;;11.25;3.80;;;;;;;28.31;31.27;99771.32;1698709;83;21824;-80
2023/06/19 14:21:42;;;;;;;6.60;3.65;;;;;;;28.31;31.15;99768.51;1692139;85;21339;-82
2023/06/19 14:24:47;;;;;;;7.75;3.65;;;;;;;28.36;30.18;99775.48;1691767;85;21896;-81
2023/06/19 14:27:55;;;;;;;5.47;3.20;;;;;;;28.26;30.80;99774.48;1722510;82;21320;-81
2023/06/19 14:31:01;;;;;;;6.75;3.85;;;;;;;28.26;30.56;99784.89;1728874;83;21316;-81
2023/06/19 14:34:06;;;;;;;7.35;3.75;;;;;;;28.27;30.79;99777.55;1764462;81;21296;-82
2023/06/19 14:37:13;;;;;;;7.97;4.50;;;;;;;28.32;30.11;99787.05;1763542;81;21316;-79